Grand Rapids, MI (49534)

1:55 PM EDT on August 24, 2016 (GMT -0400)
Elmridge and Richmond | | Change Station

Elev 745 ft 43.00 °N, 85.74 °W | Updated 12 minutes ago

Overcast
Overcast
76.5 °F
Feels Like 78 °F
N
2.2
Wind Variable Wind from SSW

Today
High -- | Low -- °F
--% Chance of Precip.
Yesterday
High -- | Low -- °F
Precip. -- in
Pressure 29.98 in
Visibility 10.0 miles
Clouds Overcast 1700 ft
Heat Index 78 °F
Dew Point 71 °F
Humidity 84%
Rainfall 0.00 in
Snow Depth Not available.
6:59 AM 8:30 PM
Waning Gibbous, 55% visible
METAR KGRR 241753Z 20011KT 10SM OVC017 25/21 A2999 RMK AO2 RAB1658E08 SLP151 P0000 60000 T02500206 10256 20194 58012 $
Pressure 29.98 in
Visibility 10.0 miles
Clouds Overcast 1700 ft
Heat Index 78 °F
Dew Point 71 °F
Humidity 84%
Rainfall 0.00 in
Snow Depth Not available.
6:59 AM 8:30 PM
Waning Gibbous, 55% visible
METAR KGRR 241753Z 20011KT 10SM OVC017 25/21 A2999 RMK AO2 RAB1658E08 SLP151 P0000 60000 T02500206 10256 20194 58012 $

10-Day Weather Forecast

Almanac

Astronomy

Aug. 24, 2016 Rise Set
Actual Time
Civil Twilight
Nautical Twilight
Astronomical Twilight
Moon
Length of Visible Light
Length of Day
Tomorrow will be .
, % of the Moon is Illuminated

Today's Extremes

State Highs State Lows

Community

WunderPhotos

Upload Photos

1,934,661 photos uploaded!

WunderBlog® & News

Nearby

Air Quality

  Air Quality AQ Index Pollutant
Not available.

Snow Depth

Station Depth Elevation

Earthquake Activity

City Distance Mag. Time & Date
Minimum magnitude displayed is 2.5.

Coastal Water Temperatures

Place Temperature

Stations

Nearby Weather Stations

Station Location Temp. Windchill Dew Point Humidity Wind Precip. Elev Updated Type
                   

Watches & Warnings

There are currently no watches in effect.